Time;durP1;ratioP1;P1;durP2;ratioP2;P2;SDS_P1;SDS_P2;PMS_P1;PMS_P2;Temp;Humidity;BMP_temperature;BMP_pressure;BME280_temperature;BME280_humidity;BME280_pressure;Samples;Min_cycle;Max_cycle;Signal;HPM_P1;HPM_P2
2021/07/31 00:01:04;;;;;;;4.22;3.40;;;19.90;99.90;;;;;;5070040;28;20210;-75
2021/07/31 00:03:31;;;;;;;4.95;3.42;;;19.90;99.90;;;;;;5070187;28;20241;-75
2021/07/31 00:05:59;;;;;;;4.40;3.67;;;19.90;99.90;;;;;;5070067;28;20209;-75
2021/07/31 00:08:28;;;;;;;4.03;3.67;;;19.90;99.90;;;;;;5069810;28;20652;-75
2021/07/31 00:10:55;;;;;;;6.75;4.18;;;20.00;99.90;;;;;;5084196;28;20209;-75
2021/07/31 00:13:22;;;;;;;4.55;3.88;;;20.00;99.90;;;;;;5069730;28;20202;-75
2021/07/31 00:15:49;;;;;;;3.72;3.10;;;20.00;99.90;;;;;;5070424;28;20267;-75
2021/07/31 00:18:16;;;;;;;4.10;3.50;;;20.00;99.90;;;;;;5070364;28;20256;-75
2021/07/31 00:20:43;;;;;;;4.85;3.85;;;19.90;99.90;;;;;;5070231;28;20206;-75
2021/07/31 00:23:11;;;;;;;4.32;3.55;;;19.80;99.90;;;;;;5070164;28;20558;-74
2021/07/31 00:25:39;;;;;;;4.28;3.88;;;19.80;99.90;;;;;;5069492;28;20225;-75
2021/07/31 00:28:07;;;;;;;3.28;2.97;;;19.80;99.90;;;;;;5070195;28;20801;-74
2021/07/31 00:30:34;;;;;;;4.97;3.42;;;19.80;99.90;;;;;;5069610;28;20251;-75
2021/07/31 00:33:01;;;;;;;4.43;3.72;;;19.70;99.90;;;;;;5070431;28;20206;-74
2021/07/31 00:35:28;;;;;;;3.58;3.22;;;19.70;99.90;;;;;;5069708;28;20267;-74
2021/07/31 00:37:55;;;;;;;3.78;3.47;;;19.80;99.90;;;;;;5070218;28;20206;-74
2021/07/31 00:40:23;;;;;;;3.83;2.88;;;19.70;99.90;;;;;;5069326;28;20673;-74
2021/07/31 00:42:51;;;;;;;4.25;3.45;;;19.80;99.90;;;;;;5070436;28;20248;-75
2021/07/31 00:45:18;;;;;;;3.70;3.38;;;19.80;99.90;;;;;;5070072;28;20269;-75
2021/07/31 00:47:45;;;;;;;3.92;3.20;;;19.80;99.90;;;;;;5069734;28;20225;-75
2021/07/31 00:50:13;;;;;;;4.13;3.80;;;19.70;99.90;;;;;;5070530;28;20565;-75
2021/07/31 00:52:41;;;;;;;4.07;3.67;;;19.80;99.90;;;;;;5069605;28;20214;-75
2021/07/31 00:55:11;;;;;;;5.55;3.10;;;19.80;99.90;;;;;;5070072;28;20280;-75
2021/07/31 00:57:41;;;;;;;4.03;3.33;;;19.70;99.90;;;;;;5069549;28;20280;-75
2021/07/31 01:00:09;;;;;;;4.50;3.15;;;19.60;99.90;;;;;;5070176;28;20289;-74
2021/07/31 01:02:37;;;;;;;3.63;3.28;;;19.60;99.90;;;;;;5069241;28;20617;-74
2021/07/31 01:05:04;;;;;;;4.32;3.92;;;19.50;99.90;;;;;;5070155;28;20203;-75
2021/07/31 01:07:32;;;;;;;6.90;3.85;;;19.50;99.90;;;;;;5069284;28;20234;-75
2021/07/31 01:09:59;;;;;;;4.30;3.90;;;19.40;99.90;;;;;;5056272;28;20206;-75
2021/07/31 01:12:26;;;;;;;3.88;3.55;;;19.40;99.90;;;;;;5069130;28;20206;-75
2021/07/31 01:14:55;;;;;;;4.03;3.70;;;19.40;99.90;;;;;;5069785;28;20206;-74
2021/07/31 01:17:22;;;;;;;4.47;4.05;;;19.40;99.90;;;;;;5071258;28;20263;-75
2021/07/31 01:19:48;;;;;;;4.97;4.03;;;19.30;99.90;;;;;;5073332;28;20214;-75
2021/07/31 01:22:17;;;;;;;2.95;2.67;;;19.30;99.90;;;;;;5073388;28;20615;-74
2021/07/31 01:24:44;;;;;;;5.45;3.85;;;19.30;99.90;;;;;;5073319;28;20202;-75
2021/07/31 01:27:11;;;;;;;4.88;3.97;;;19.30;99.90;;;;;;5072907;28;20268;-74
2021/07/31 01:29:38;;;;;;;7.15;4.60;;;19.40;99.90;;;;;;5072886;28;20260;-75
2021/07/31 01:32:06;;;;;;;4.35;3.33;;;19.50;99.90;;;;;;5073013;28;20625;-74
2021/07/31 01:34:33;;;;;;;3.92;3.58;;;19.60;99.90;;;;;;5072683;28;20206;-75
2021/07/31 01:37:00;;;;;;;4.80;3.95;;;19.70;99.90;;;;;;5072830;28;20263;-74
2021/07/31 01:39:28;;;;;;;6.38;3.80;;;19.70;99.90;;;;;;5072954;28;20206;-74
2021/07/31 01:41:55;;;;;;;4.93;3.92;;;19.60;99.90;;;;;;5073043;28;20261;-74
2021/07/31 01:44:23;;;;;;;3.38;3.08;;;19.60;99.90;;;;;;5072273;28;20630;-74
2021/07/31 01:46:49;;;;;;;4.20;3.33;;;19.60;99.90;;;;;;5072841;28;20236;-75
2021/07/31 01:49:16;;;;;;;4.10;3.50;;;19.60;99.90;;;;;;5072875;28;20628;-74
2021/07/31 01:51:43;;;;;;;6.00;3.90;;;19.60;99.90;;;;;;5072837;28;20741;-74
2021/07/31 01:54:10;;;;;;;3.80;3.50;;;19.60;99.90;;;;;;5072762;28;20209;-74
2021/07/31 01:56:39;;;;;;;3.85;3.50;;;19.50;99.90;;;;;;5072340;28;20206;-75
2021/07/31 01:59:06;;;;;;;3.72;3.42;;;19.50;99.90;;;;;;5072734;28;20339;-74
2021/07/31 02:01:32;;;;;;;3.35;3.05;;;19.50;99.90;;;;;;5072371;28;20243;-74
2021/07/31 02:03:59;;;;;;;4.93;3.00;;;19.50;99.90;;;;;;5072492;28;20209;-75
2021/07/31 02:06:26;;;;;;;4.07;2.70;;;19.50;99.90;;;;;;5079535;28;20251;-75
2021/07/31 02:08:53;;;;;;;2.92;2.60;;;19.50;99.90;;;;;;5092666;28;20309;-75
2021/07/31 02:11:20;;;;;;;5.88;3.72;;;19.50;99.90;;;;;;5091879;28;20657;-74
2021/07/31 02:13:48;;;;;;;5.57;2.50;;;19.50;99.90;;;;;;5092695;28;20627;-75
2021/07/31 02:16:23;;;;;;;3.90;3.50;;;19.60;99.90;;;;;;5092833;28;20617;-75
2021/07/31 02:18:50;;;;;;;4.32;2.20;;;19.50;99.90;;;;;;5092539;28;20201;-74
2021/07/31 02:21:17;;;;;;;2.53;2.30;;;19.50;99.90;;;;;;5092911;28;20206;-74
2021/07/31 02:23:44;;;;;;;2.75;2.55;;;19.50;99.90;;;;;;5092198;28;20750;-74
2021/07/31 02:26:11;;;;;;;4.32;3.25;;;19.50;99.90;;;;;;5092219;28;20213;-74
2021/07/31 02:28:38;;;;;;;2.80;2.25;;;19.40;99.90;;;;;;5090527;28;20662;-72
2021/07/31 02:31:07;;;;;;;3.65;3.03;;;19.40;99.90;;;;;;5092292;28;20201;-75
2021/07/31 02:33:34;;;;;;;4.10;2.63;;;19.30;99.90;;;;;;5091972;28;20288;-75
2021/07/31 02:36:03;;;;;;;4.22;2.92;;;19.30;99.90;;;;;;5092120;28;20267;-74
2021/07/31 02:38:30;;;;;;;4.30;2.55;;;19.20;99.90;;;;;;5091646;28;20201;-75
2021/07/31 02:40:57;;;;;;;3.13;2.67;;;19.30;99.90;;;;;;5091391;28;20209;-74
2021/07/31 02:43:24;;;;;;;3.53;2.20;;;19.20;99.90;;;;;;5091656;28;20262;-74
2021/07/31 02:45:51;;;;;;;5.28;2.80;;;19.20;99.90;;;;;;5092220;28;20206;-75
2021/07/31 02:48:19;;;;;;;5.47;2.90;;;19.20;99.90;;;;;;5091506;28;20685;-74
2021/07/31 02:50:46;;;;;;;3.75;2.35;;;19.20;99.90;;;;;;5092354;28;20209;-75
2021/07/31 02:53:13;;;;;;;4.00;2.40;;;19.10;99.90;;;;;;5092010;28;20206;-74
2021/07/31 02:55:40;;;;;;;3.83;2.42;;;19.10;99.90;;;;;;5091129;28;20700;-74
2021/07/31 02:58:07;;;;;;;3.10;2.33;;;19.20;99.90;;;;;;5091772;28;20266;-74
2021/07/31 03:00:34;;;;;;;5.05;1.70;;;19.10;99.90;;;;;;5091598;28;20258;-74
2021/07/31 03:03:01;;;;;;;5.30;1.90;;;19.00;99.90;;;;;;5091736;28;20217;-75
2021/07/31 03:05:29;;;;;;;6.03;2.92;;;19.10;99.90;;;;;;5091387;28;20637;-75
2021/07/31 03:07:56;;;;;;;6.68;2.78;;;19.00;99.90;;;;;;5091297;28;20649;-75
2021/07/31 03:10:23;;;;;;;3.90;2.58;;;18.90;99.90;;;;;;5085406;28;20202;-74
2021/07/31 03:12:51;;;;;;;7.05;3.28;;;18.80;99.90;;;;;;5083053;28;20206;-74
2021/07/31 03:15:18;;;;;;;10.15;3.53;;;18.80;99.90;;;;;;5091202;28;20210;-74
2021/07/31 03:17:45;;;;;;;3.15;2.78;;;18.60;99.90;;;;;;5091783;28;20254;-75
2021/07/31 03:20:13;;;;;;;9.18;3.05;;;18.70;99.90;;;;;;5091020;28;20288;-74
2021/07/31 03:22:41;;;;;;;3.42;2.20;;;18.70;99.90;;;;;;5091138;28;20213;-74
2021/07/31 03:25:09;;;;;;;5.97;2.70;;;18.70;99.90;;;;;;5091070;28;20266;-74
2021/07/31 03:27:36;;;;;;;5.82;3.00;;;18.90;99.90;;;;;;5062952;28;20299;-75
2021/07/31 03:30:03;;;;;;;4.03;3.17;;;19.00;99.90;;;;;;5091409;28;20213;-74
2021/07/31 03:32:30;;;;;;;3.15;1.83;;;18.80;99.90;;;;;;5090634;28;20198;-74
2021/07/31 03:34:57;;;;;;;4.82;3.17;;;18.80;99.90;;;;;;5091178;28;20274;-75
2021/07/31 03:37:24;;;;;;;3.50;2.47;;;18.80;99.90;;;;;;5090072;28;20205;-74
2021/07/31 03:39:52;;;;;;;4.40;3.20;;;18.80;99.90;;;;;;5090986;28;20205;-74
2021/07/31 03:42:19;;;;;;;5.13;2.65;;;18.70;99.90;;;;;;5090981;28;20257;-75
2021/07/31 03:44:46;;;;;;;10.30;3.08;;;18.60;99.90;;;;;;5091517;28;20251;-75
2021/07/31 03:47:13;;;;;;;6.72;2.63;;;18.50;99.90;;;;;;5091449;28;20209;-75
2021/07/31 03:49:40;;;;;;;5.05;2.80;;;18.60;99.90;;;;;;5090039;28;20716;-75
2021/07/31 03:52:07;;;;;;;5.88;3.08;;;18.60;99.90;;;;;;5090543;28;20266;-74
2021/07/31 03:54:37;;;;;;;4.97;3.10;;;18.60;99.90;;;;;;5090445;28;20205;-74
2021/07/31 03:57:05;;;;;;;4.65;2.92;;;18.40;99.90;;;;;;5091049;28;20205;-74
2021/07/31 03:59:33;;;;;;;7.75;2.60;;;18.40;99.90;;;;;;5090319;28;20205;-74
2021/07/31 04:02:02;;;;;;;7.72;3.40;;;18.40;99.90;;;;;;5090607;28;20213;-75
2021/07/31 04:04:29;;;;;;;4.28;2.45;;;18.40;99.90;;;;;;5089932;28;20263;-74
2021/07/31 04:06:58;;;;;;;4.80;2.88;;;18.40;99.90;;;;;;5090536;28;20676;-74
2021/07/31 04:09:25;;;;;;;3.85;2.60;;;18.50;99.90;;;;;;5089945;28;20712;-75
2021/07/31 04:11:52;;;;;;;4.60;2.42;;;18.60;99.90;;;;;;5090767;28;20207;-74
2021/07/31 04:14:20;;;;;;;5.60;2.85;;;18.50;99.90;;;;;;5090296;28;20669;-75
2021/07/31 04:16:47;;;;;;;6.80;4.00;;;18.60;99.90;;;;;;5090546;28;20206;-74
2021/07/31 04:19:14;;;;;;;4.93;3.00;;;18.50;99.90;;;;;;5090765;28;20254;-74
2021/07/31 04:21:42;;;;;;;7.07;3.17;;;18.40;99.90;;;;;;5089901;28;20251;-74
2021/07/31 04:24:09;;;;;;;6.03;2.92;;;18.30;99.90;;;;;;5090333;28;20665;-74
2021/07/31 04:26:35;;;;;;;7.45;2.42;;;18.20;99.90;;;;;;5090140;28;20270;-74
2021/07/31 04:29:02;;;;;;;6.97;3.55;;;18.30;99.90;;;;;;5090235;28;20229;-74
2021/07/31 04:31:31;;;;;;;9.48;3.10;;;18.30;99.90;;;;;;5090079;28;20205;-75
2021/07/31 04:33:58;;;;;;;5.38;2.55;;;18.20;99.90;;;;;;5090141;28;20734;-75
2021/07/31 04:36:25;;;;;;;5.00;2.97;;;18.30;99.90;;;;;;5090121;28;20198;-75
2021/07/31 04:38:52;;;;;;;9.55;3.00;;;18.20;99.90;;;;;;5076182;28;20202;-75
2021/07/31 04:41:19;;;;;;;3.70;3.17;;;18.20;99.90;;;;;;5090473;28;20201;-74
2021/07/31 04:43:46;;;;;;;7.80;3.80;;;18.20;99.90;;;;;;5090861;28;20225;-74
2021/07/31 04:46:13;;;;;;;5.15;2.50;;;18.20;99.90;;;;;;5090335;28;20245;-74
2021/07/31 04:48:41;;;;;;;6.20;2.58;;;18.10;99.90;;;;;;5089991;28;20232;-74
2021/07/31 04:51:09;;;;;;;6.50;3.20;;;18.00;99.90;;;;;;5090017;28;20206;-74
2021/07/31 04:53:36;;;;;;;3.22;2.40;;;18.00;99.90;;;;;;5093932;28;20248;-74
2021/07/31 04:56:03;;;;;;;9.35;3.22;;;18.00;99.90;;;;;;5093714;28;20258;-74
2021/07/31 04:58:31;;;;;;;7.32;2.65;;;18.00;99.90;;;;;;5093625;28;20262;-73
2021/07/31 05:00:59;;;;;;;6.05;3.20;;;18.00;99.90;;;;;;5093696;28;20258;-74
2021/07/31 05:03:26;;;;;;;4.45;2.33;;;18.00;99.90;;;;;;5094019;28;20296;-74
2021/07/31 05:05:55;;;;;;;9.63;3.05;;;18.00;99.90;;;;;;5093598;28;20673;-74
2021/07/31 05:08:22;;;;;;;10.57;2.90;;;18.00;99.90;;;;;;5093328;28;20280;-74
2021/07/31 05:10:51;;;;;;;6.38;3.08;;;18.00;99.90;;;;;;5093962;28;20210;-72
2021/07/31 05:13:19;;;;;;;6.28;3.28;;;18.00;99.90;;;;;;5093325;28;20198;-74
2021/07/31 05:15:47;;;;;;;5.38;2.90;;;17.90;99.90;;;;;;5094259;28;20206;-74
2021/07/31 05:18:14;;;;;;;4.35;2.22;;;17.90;99.90;;;;;;5094231;28;20206;-74
2021/07/31 05:20:43;;;;;;;6.38;3.00;;;17.80;99.90;;;;;;5092940;28;20266;-72
2021/07/31 05:23:12;;;;;;;8.18;2.97;;;17.80;99.90;;;;;;5093887;28;20210;-74
2021/07/31 05:25:39;;;;;;;3.17;2.75;;;17.60;99.90;;;;;;5092906;28;20635;-74
2021/07/31 05:28:06;;;;;;;8.13;4.15;;;17.60;99.90;;;;;;5093709;28;20209;-74
2021/07/31 05:30:33;;;;;;;10.20;3.70;;;17.60;99.90;;;;;;5092760;28;20231;-73
2021/07/31 05:33:00;;;;;;;8.25;3.60;;;17.50;99.90;;;;;;5093684;28;20205;-72
2021/07/31 05:35:27;;;;;;;6.53;3.08;;;17.40;99.90;;;;;;5092832;28;20209;-73
2021/07/31 05:37:54;;;;;;;9.75;3.00;;;17.30;99.90;;;;;;5093221;28;20209;-73
2021/07/31 05:40:22;;;;;;;10.70;4.03;;;17.30;99.90;;;;;;5092917;28;20206;-73
2021/07/31 05:42:49;;;;;;;13.32;4.32;;;17.50;99.90;;;;;;5093287;28;20254;-73
2021/07/31 05:45:16;;;;;;;8.60;3.03;;;17.50;99.90;;;;;;5093739;28;20259;-73
2021/07/31 05:47:43;;;;;;;6.13;3.15;;;17.60;99.90;;;;;;5093094;28;20201;-74
2021/07/31 05:50:11;;;;;;;10.38;3.38;;;17.70;99.90;;;;;;5093064;28;20273;-76
2021/07/31 05:52:39;;;;;;;8.05;3.13;;;17.70;99.90;;;;;;5092433;28;20209;-75
2021/07/31 05:55:07;;;;;;;5.78;2.35;;;17.60;99.90;;;;;;5093325;28;20661;-74
2021/07/31 05:57:36;;;;;;;7.60;3.45;;;17.60;99.90;;;;;;5092511;28;20254;-73
2021/07/31 06:00:04;;;;;;;6.68;2.83;;;17.60;99.90;;;;;;5093207;28;20593;-76
2021/07/31 06:02:31;;;;;;;6.30;3.10;;;17.50;99.90;;;;;;5092207;28;20666;-73
2021/07/31 06:04:57;;;;;;;5.80;2.80;;;17.50;99.90;;;;;;5092633;28;20202;-75
2021/07/31 06:07:24;;;;;;;8.60;2.95;;;17.50;99.90;;;;;;5092453;28;20209;-75
2021/07/31 06:09:53;;;;;;;9.32;3.10;;;17.40;99.90;;;;;;5092312;28;20736;-74
2021/07/31 06:12:21;;;;;;;7.40;3.78;;;17.40;99.90;;;;;;5092592;28;20237;-74
2021/07/31 06:14:49;;;;;;;8.75;3.60;;;17.50;99.90;;;;;;5092703;28;20237;-74
2021/07/31 06:17:17;;;;;;;5.55;2.88;;;17.50;99.90;;;;;;5092558;28;20205;-74
2021/07/31 06:19:43;;;;;;;6.60;3.00;;;17.50;99.90;;;;;;5092422;28;20206;-74
2021/07/31 06:22:11;;;;;;;10.32;3.90;;;17.80;99.90;;;;;;5092429;28;20254;-74
2021/07/31 06:24:39;;;;;;;5.55;2.97;;;17.70;99.90;;;;;;5092229;28;20263;-74
2021/07/31 06:27:06;;;;;;;6.22;3.25;;;17.70;99.90;;;;;;5092108;28;20259;-74
2021/07/31 06:29:33;;;;;;;5.65;2.97;;;17.60;99.90;;;;;;5091881;28;20229;-74
2021/07/31 06:32:02;;;;;;;7.32;3.10;;;17.60;99.90;;;;;;5091835;28;20205;-74
2021/07/31 06:34:30;;;;;;;9.05;3.25;;;17.60;99.90;;;;;;5091970;28;20292;-74
2021/07/31 06:36:57;;;;;;;5.05;2.67;;;17.70;99.90;;;;;;5092334;28;20205;-73
2021/07/31 06:39:25;;;;;;;10.02;2.83;;;17.60;99.90;;;;;;5091381;28;20201;-74
2021/07/31 06:41:52;;;;;;;7.47;2.83;;;17.50;99.90;;;;;;5092284;28;20601;-74
2021/07/31 06:44:19;;;;;;;9.13;3.00;;;17.50;99.90;;;;;;5091743;28;20730;-75
2021/07/31 06:46:46;;;;;;;7.22;2.75;;;17.80;99.90;;;;;;5092258;28;20258;-74
2021/07/31 06:49:14;;;;;;;8.88;3.63;;;17.90;99.90;;;;;;5091985;28;20298;-75
2021/07/31 06:51:41;;;;;;;4.47;3.03;;;18.00;99.90;;;;;;5091794;28;20201;-74
2021/07/31 06:54:09;;;;;;;5.05;2.90;;;18.30;99.90;;;;;;5091834;28;20296;-74
2021/07/31 06:56:36;;;;;;;5.43;2.95;;;18.30;99.90;;;;;;5091590;28;20201;-75
2021/07/31 06:59:04;;;;;;;5.60;2.90;;;18.60;99.90;;;;;;5091963;28;20213;-74
2021/07/31 07:01:31;;;;;;;4.43;2.65;;;18.30;99.90;;;;;;5090708;28;20258;-75
2021/07/31 07:03:58;;;;;;;7.95;3.25;;;18.10;99.90;;;;;;5091947;28;20205;-74
2021/07/31 07:06:26;;;;;;;5.07;2.70;;;18.00;99.90;;;;;;5091206;28;20252;-75
2021/07/31 07:08:53;;;;;;;9.38;3.15;;;17.90;99.90;;;;;;5091463;28;20229;-74
2021/07/31 07:11:20;;;;;;;11.55;2.85;;;17.80;99.90;;;;;;5091120;28;20209;-74
2021/07/31 07:13:47;;;;;;;10.90;3.47;;;17.70;99.90;;;;;;5091638;28;20247;-74
2021/07/31 07:16:14;;;;;;;6.65;3.30;;;17.60;99.90;;;;;;5091390;28;20255;-74
2021/07/31 07:18:41;;;;;;;4.22;2.70;;;17.60;99.90;;;;;;5091063;28;20637;-75
2021/07/31 07:21:10;;;;;;;6.68;2.95;;;17.50;99.90;;;;;;5091620;28;20205;-75
2021/07/31 07:23:39;;;;;;;5.05;3.40;;;17.50;99.90;;;;;;5090985;28;20205;-75
2021/07/31 07:26:09;;;;;;;7.60;3.17;;;17.50;99.90;;;;;;5083597;28;20214;-75
2021/07/31 07:28:37;;;;;;;7.13;3.30;;;17.60;99.90;;;;;;5084648;28;20676;-75
2021/07/31 07:31:05;;;;;;;5.88;3.08;;;17.60;99.90;;;;;;5091350;28;20288;-75
2021/07/31 07:33:32;;;;;;;4.25;2.90;;;17.70;99.90;;;;;;5090654;28;20679;-75
2021/07/31 07:36:00;;;;;;;8.38;2.53;;;17.50;99.90;;;;;;5090912;28;20201;-75
2021/07/31 07:38:27;;;;;;;8.38;3.15;;;17.50;99.90;;;;;;5090787;28;20205;-75
2021/07/31 07:40:55;;;;;;;7.25;3.08;;;17.50;99.90;;;;;;5091019;28;20206;-75
2021/07/31 07:43:22;;;;;;;5.90;3.40;;;17.40;99.90;;;;;;5090395;28;20680;-75
2021/07/31 07:45:49;;;;;;;7.40;3.47;;;17.60;99.90;;;;;;5090429;28;20251;-75
2021/07/31 07:48:16;;;;;;;4.30;3.17;;;17.60;99.90;;;;;;5091223;28;20205;-75
2021/07/31 07:50:43;;;;;;;6.97;2.85;;;17.70;99.90;;;;;;5090675;28;20245;-75
2021/07/31 07:53:10;;;;;;;5.45;2.45;;;17.60;99.90;;;;;;5090887;28;20730;-75
2021/07/31 07:55:37;;;;;;;6.05;3.03;;;17.70;99.90;;;;;;5090280;28;20209;-75
2021/07/31 07:58:10;;;;;;;5.93;3.75;;;17.80;99.90;;;;;;5090750;28;20201;-75
2021/07/31 08:00:37;;;;;;;12.00;3.30;;;17.70;99.90;;;;;;5090067;28;21194;-75
2021/07/31 08:03:06;;;;;;;9.68;2.97;;;17.60;99.90;;;;;;5090335;28;20627;-75
2021/07/31 08:05:33;;;;;;;3.83;2.45;;;17.50;99.90;;;;;;5090230;28;20725;-76
2021/07/31 08:08:01;;;;;;;4.97;2.65;;;17.70;99.90;;;;;;5088137;28;20205;-75
2021/07/31 08:10:28;;;;;;;5.32;2.75;;;17.80;99.90;;;;;;5078972;28;20229;-75
2021/07/31 08:12:55;;;;;;;7.47;2.80;;;17.90;99.90;;;;;;5089353;28;20209;-75
2021/07/31 08:15:25;;;;;;;6.43;3.42;;;18.00;99.90;;;;;;5087269;28;20665;-75
2021/07/31 08:17:51;;;;;;;5.55;3.08;;;18.00;99.90;;;;;;5090559;28;20205;-75
2021/07/31 08:20:18;;;;;;;7.88;3.28;;;18.20;99.90;;;;;;5090332;28;20209;-75
2021/07/31 08:22:46;;;;;;;5.78;2.55;;;18.40;99.90;;;;;;5082417;28;20255;-75
2021/07/31 08:25:13;;;;;;;4.88;2.80;;;18.50;99.90;;;;;;5084704;28;20213;-76
2021/07/31 08:27:41;;;;;;;5.15;2.42;;;18.40;99.90;;;;;;5092405;28;21029;-75
2021/07/31 08:30:09;;;;;;;5.00;2.63;;;18.30;99.90;;;;;;5094817;28;20286;-75
2021/07/31 08:32:38;;;;;;;6.93;3.10;;;18.20;99.90;;;;;;5094145;28;20254;-75
2021/07/31 08:35:06;;;;;;;12.45;3.88;;;18.00;99.90;;;;;;5082800;28;20674;-76
2021/07/31 08:37:38;;;;;;;6.60;3.10;;;17.90;99.90;;;;;;5091548;28;20657;-76
2021/07/31 08:40:08;;;;;;;5.82;2.63;;;17.90;99.90;;;;;;5094653;28;20209;-76
2021/07/31 08:42:36;;;;;;;8.23;3.88;;;17.80;99.90;;;;;;5093486;28;20736;-75
2021/07/31 08:45:04;;;;;;;5.82;3.83;;;18.10;99.90;;;;;;5094609;28;20296;-75
2021/07/31 08:47:31;;;;;;;4.15;3.33;;;18.00;99.90;;;;;;5093863;28;20672;-75
2021/07/31 08:50:00;;;;;;;5.43;3.10;;;17.90;99.90;;;;;;5094146;28;20225;-75
2021/07/31 08:52:31;;;;;;;6.13;3.95;;;18.10;99.90;;;;;;5093935;28;20205;-76
2021/07/31 08:54:58;;;;;;;7.68;2.83;;;18.30;99.90;;;;;;5094279;28;20201;-74
2021/07/31 08:57:25;;;;;;;3.97;3.10;;;18.30;99.90;;;;;;5093738;28;20262;-75
2021/07/31 08:59:53;;;;;;;6.47;3.22;;;18.40;99.90;;;;;;5094129;28;20205;-75
2021/07/31 09:02:20;;;;;;;8.13;3.55;;;18.30;99.90;;;;;;5093568;28;20259;-77
2021/07/31 09:04:50;;;;;;;5.90;4.07;;;18.30;99.90;;;;;;5094090;28;20251;-76
2021/07/31 09:07:19;;;;;;;9.40;4.10;;;18.20;99.90;;;;;;5094046;28;20216;-76
2021/07/31 09:09:47;;;;;;;7.45;3.67;;;18.10;99.90;;;;;;5093901;28;20229;-75
2021/07/31 09:12:15;;;;;;;7.75;3.60;;;18.00;99.90;;;;;;5093869;28;20213;-75
2021/07/31 09:14:47;;;;;;;7.68;3.75;;;18.10;99.90;;;;;;5093395;28;20209;-75
2021/07/31 09:17:25;;;;;;;8.27;4.25;;;18.30;99.90;;;;;;5093740;28;20267;-75
2021/07/31 09:19:53;;;;;;;7.55;3.45;;;18.50;99.90;;;;;;5093726;28;20256;-75
2021/07/31 09:22:21;;;;;;;7.78;3.30;;;18.50;99.90;;;;;;5093428;28;20254;-75
2021/07/31 09:25:09;;;;;;;9.93;3.78;;;18.40;99.90;;;;;;5093528;28;20251;-74
2021/07/31 09:27:36;;;;;;;6.65;3.38;;;18.40;99.90;;;;;;5093010;28;20228;-76
2021/07/31 09:30:05;;;;;;;4.72;3.42;;;18.70;99.90;;;;;;5093766;28;20286;-75
2021/07/31 09:32:40;;;;;;;6.05;3.55;;;18.60;99.90;;;;;;5093088;28;20202;-75
2021/07/31 09:35:24;;;;;;;8.02;3.55;;;18.40;99.90;;;;;;5093675;28;20457;-75
2021/07/31 09:37:55;;;;;;;6.97;3.17;;;18.50;99.90;;;;;;5092636;28;20580;-75
2021/07/31 09:40:29;;;;;;;8.38;3.33;;;18.50;99.90;;;;;;5092926;28;20219;-75
2021/07/31 09:42:57;;;;;;;8.27;3.55;;;18.30;99.90;;;;;;5065883;28;20201;-75
2021/07/31 09:45:33;;;;;;;15.98;3.72;;;18.40;99.90;;;;;;5093075;28;20263;-75
2021/07/31 09:48:02;;;;;;;7.50;3.63;;;18.60;99.90;;;;;;5079020;28;20201;-75
2021/07/31 09:50:40;;;;;;;9.50;3.60;;;18.70;99.90;;;;;;5092796;28;20233;-75
2021/07/31 09:53:10;;;;;;;5.10;3.50;;;18.60;99.90;;;;;;5065136;28;20250;-75
2021/07/31 09:55:42;;;;;;;6.57;3.10;;;18.70;99.90;;;;;;5092665;28;20296;-75
2021/07/31 09:58:11;;;;;;;5.35;3.53;;;18.60;99.90;;;;;;5092984;28;20198;-76
2021/07/31 10:00:41;;;;;;;6.13;3.53;;;18.40;99.90;;;;;;5092514;28;20259;-75
2021/07/31 10:03:09;;;;;;;10.45;4.43;;;18.40;99.90;;;;;;5092612;28;20292;-75
2021/07/31 10:05:39;;;;;;;6.32;3.67;;;18.60;99.90;;;;;;5092606;28;20270;-75
2021/07/31 10:08:08;;;;;;;4.38;3.20;;;18.90;99.90;;;;;;5092487;28;20289;-75
2021/07/31 10:10:35;;;;;;;4.63;2.95;;;18.80;99.90;;;;;;5092207;28;20229;-75
2021/07/31 10:13:03;;;;;;;7.95;3.75;;;19.00;99.90;;;;;;5092666;28;20208;-76
2021/07/31 10:15:30;;;;;;;7.75;3.78;;;18.90;99.90;;;;;;5091936;28;20201;-75
2021/07/31 10:17:58;;;;;;;6.15;3.00;;;19.20;99.90;;;;;;5081807;28;20678;-75
2021/07/31 10:20:27;;;;;;;5.53;3.97;;;19.10;99.90;;;;;;5089076;28;20202;-74
2021/07/31 10:22:55;;;;;;;5.72;3.33;;;19.20;99.90;;;;;;5092593;28;20215;-76
2021/07/31 10:25:24;;;;;;;7.18;3.00;;;19.10;99.90;;;;;;5091513;28;20742;-75
2021/07/31 10:27:53;;;;;;;10.43;3.25;;;19.10;99.90;;;;;;5092523;28;20201;-76
2021/07/31 10:30:31;;;;;;;5.43;3.13;;;19.10;99.90;;;;;;5092143;28;20233;-76
2021/07/31 10:32:58;;;;;;;9.20;3.53;;;19.20;99.90;;;;;;5092381;28;20300;-75
2021/07/31 10:35:31;;;;;;;8.13;3.42;;;19.20;99.90;;;;;;5091866;28;20657;-75
2021/07/31 10:37:59;;;;;;;7.97;4.45;;;19.20;99.90;;;;;;5091955;28;20201;-76
2021/07/31 10:40:56;;;;;;;4.93;3.15;;;19.20;99.90;;;;;;5091557;28;20255;-75
2021/07/31 10:43:23;;;;;;;6.00;3.35;;;19.30;99.90;;;;;;5061532;28;20206;-75
2021/07/31 10:45:51;;;;;;;7.50;3.05;;;19.40;99.90;;;;;;5088144;28;20209;-74
2021/07/31 10:48:35;;;;;;;3.70;2.85;;;19.50;99.90;;;;;;5091816;28;20219;-74
2021/07/31 10:51:03;;;;;;;6.63;3.08;;;19.40;99.90;;;;;;5090806;28;20914;-77
2021/07/31 10:53:52;;;;;;;6.93;3.47;;;19.50;99.90;;;;;;5091291;28;20769;-76
2021/07/31 10:56:21;;;;;;;6.97;2.92;;;19.40;99.90;;;;;;5075524;28;20203;-76
2021/07/31 10:59:16;;;;;;;9.63;3.70;;;19.50;99.90;;;;;;5070436;28;20206;-77
2021/07/31 11:01:43;;;;;;;6.35;3.85;;;19.50;99.90;;;;;;5065036;28;20628;-78
2021/07/31 11:04:10;;;;;;;6.80;3.10;;;19.10;99.90;;;;;;5079315;28;20206;-77
2021/07/31 11:07:09;;;;;;;4.78;3.00;;;19.00;99.90;;;;;;5083194;28;20214;-74
2021/07/31 11:09:36;;;;;;;3.47;2.35;;;18.90;99.90;;;;;;5089277;28;20744;-74
2021/07/31 11:12:45;;;;;;;4.07;2.20;;;18.70;99.90;;;;;;5091824;28;20209;-74
2021/07/31 11:15:13;;;;;;;4.20;2.85;;;18.50;99.90;;;;;;5050988;28;20258;-74
2021/07/31 11:17:40;;;;;;;2.90;2.45;;;18.30;99.90;;;;;;5091226;28;20263;-74
2021/07/31 11:20:26;;;;;;;3.65;2.47;;;18.10;99.90;;;;;;5091462;28;20213;-75
2021/07/31 11:22:54;;;;;;;4.65;2.50;;;18.10;99.90;;;;;;5087386;28;20258;-75
2021/07/31 11:25:21;;;;;;;3.95;2.88;;;17.70;99.90;;;;;;5082850;28;20696;-75
2021/07/31 11:28:00;;;;;;;2.80;2.60;;;17.60;99.90;;;;;;5091073;28;20255;-75
2021/07/31 11:30:42;;;;;;;3.75;2.58;;;17.70;99.90;;;;;;5090650;28;20217;-76
2021/07/31 11:33:24;;;;;;;3.97;2.83;;;17.50;99.90;;;;;;5091051;28;20254;-75
2021/07/31 11:35:53;;;;;;;5.53;2.38;;;17.30;99.90;;;;;;5090929;28;20634;-75
2021/07/31 11:38:32;;;;;;;5.97;2.58;;;17.10;99.90;;;;;;5090657;28;20707;-74
2021/07/31 11:41:00;;;;;;;5.97;2.67;;;17.10;99.90;;;;;;5090776;28;20212;-75
2021/07/31 11:43:28;;;;;;;2.78;2.38;;;16.80;99.90;;;;;;5090917;28;20259;-75
2021/07/31 11:45:56;;;;;;;3.00;2.00;;;16.90;99.90;;;;;;5090709;28;20845;-75
2021/07/31 11:48:24;;;;;;;3.10;2.38;;;17.00;99.90;;;;;;5090480;28;20247;-75
2021/07/31 11:51:04;;;;;;;3.90;1.83;;;17.30;99.90;;;;;;5090692;28;20315;-75
2021/07/31 11:53:31;;;;;;;6.65;2.72;;;17.20;99.90;;;;;;5090791;28;20198;-75
2021/07/31 11:56:12;;;;;;;2.90;2.40;;;17.20;99.90;;;;;;5090780;28;20205;-75
2021/07/31 11:58:41;;;;;;;2.60;2.10;;;17.40;99.90;;;;;;5084514;28;20205;-75
2021/07/31 12:01:11;;;;;;;4.57;2.90;;;17.80;99.90;;;;;;5077590;28;20677;-75
2021/07/31 12:03:43;;;;;;;5.47;2.50;;;18.10;99.90;;;;;;5089475;28;20217;-75
2021/07/31 12:06:35;;;;;;;4.43;1.90;;;17.90;99.90;;;;;;5088614;28;20216;-75
2021/07/31 12:09:04;;;;;;;4.07;2.47;;;17.80;99.90;;;;;;5084982;28;20206;-75
2021/07/31 12:11:35;;;;;;;4.15;2.70;;;17.30;99.90;;;;;;5086416;28;20226;-75
2021/07/31 12:14:23;;;;;;;4.40;2.67;;;17.00;99.90;;;;;;5080584;28;20205;-75
2021/07/31 12:16:51;;;;;;;3.13;2.67;;;16.90;99.90;;;;;;5090538;28;20216;-74
2021/07/31 12:19:18;;;;;;;4.63;3.00;;;16.80;99.90;;;;;;5090134;28;20206;-75
2021/07/31 12:21:45;;;;;;;3.35;2.47;;;16.70;99.90;;;;;;5090995;28;20216;-75
2021/07/31 12:24:18;;;;;;;6.40;3.17;;;16.60;99.90;;;;;;5062540;28;20202;-75
2021/07/31 12:26:53;;;;;;;2.97;2.50;;;16.70;99.90;;;;;;5090306;28;20252;-74
2021/07/31 12:29:32;;;;;;;6.22;2.55;;;16.70;99.90;;;;;;5089940;28;20197;-75
2021/07/31 12:32:21;;;;;;;4.63;2.15;;;16.80;99.90;;;;;;5090490;28;20282;-75
2021/07/31 12:34:49;;;;;;;5.07;2.42;;;16.90;99.90;;;;;;5068502;28;20251;-75
2021/07/31 12:37:16;;;;;;;5.00;1.63;;;17.00;99.90;;;;;;5090346;28;20266;-75
2021/07/31 12:39:43;;;;;;;2.67;2.17;;;16.90;99.90;;;;;;5082803;28;20293;-74
2021/07/31 12:42:10;;;;;;;3.28;1.70;;;16.70;99.90;;;;;;5084105;28;20259;-75
2021/07/31 12:44:38;;;;;;;4.00;2.20;;;16.50;99.90;;;;;;5061815;28;20209;-74
2021/07/31 12:47:06;;;;;;;2.35;2.00;;;16.20;99.90;;;;;;5090365;28;20212;-75
2021/07/31 12:49:35;;;;;;;3.13;2.28;;;16.20;99.90;;;;;;5089221;28;20202;-74
2021/07/31 12:52:02;;;;;;;3.22;2.92;;;16.00;99.90;;;;;;5090173;28;20282;-74
2021/07/31 12:54:29;;;;;;;2.67;1.80;;;15.70;99.90;;;;;;5089570;28;20198;-74